Hopatcong, NJ (07843)

4:35 PM EST on December 22, 2014 (GMT -0500)
Hopatcong, NJ | Change Station
CLOSE
Current Station
Personal Weather Station
Location: Hopatcong, NJ
Elevation: 960 ft
Nearby Weather Stations
Active Advisory: Freezing Rain Advisory

Elev 960 ft 40.92 °N, 74.68 °W | Updated 7 seconds ago

Overcast
Overcast
35.1 °F
Feels Like 35 °F
N
0.0
Wind Variable Wind from NE
Gusts 0.0 mph

Today
High -- | Low -- °F
--% Chance of Precip.
Yesterday
High -- | Low -- °F
Precip. -- in
7:20 AM 4:34 PM
New Moon, 1% visible
Pressure 30.24 in
Visibility 7.0 miles
Clouds Overcast 1200 ft
Windchill 35 °F
Dew Point 34 °F
Humidity 95%
Rainfall 0.00 in
Snow Depth Not available.
UV 0.0 out of 12
Pollen .10 out of 12
Air Quality Not available.
Flu Activity Not available.
METAR KMMU 222045Z 00000KT 7SM OVC012 05/02 A3024

More Conditions Fewer Conditions

Pressure 30.24 in
Visibility 7.0 miles
Clouds Overcast 1200 ft
Windchill 35 °F
Dew Point 34 °F
Humidity 95%
Rainfall 0.00 in
Snow Depth Not available.
UV 0.0 out of 12
Pollen .10 out of 12
Air Quality Not available.
Flu Activity Not available.
METAR KMMU 222045Z 00000KT 7SM OVC012 05/02 A3024

More Conditions Fewer Conditions

10-Day Weather Forecast

Almanac

Astronomy

Dec. 22, 2014 Rise Set
Actual Time
Civil Twilight
Nautical Twilight
Astronomical Twilight
Moon
Length of Visible Light
Length of Day
Tomorrow will be .
, % of the Moon is Illuminated

Today's Extremes

State Highs State Lows

Community

WunderPhotos

Upload Photos

1,779,683 photos uploaded!

WunderBlogs® & News

Nearby

Air Quality

  Air Quality AQ Index Pollutant
Not available.

Snow Depth

Station Depth Elevation

Earthquake Activity

City Distance Mag. Time & Date
Minimum magnitude displayed is 2.5.

Coastal Water Temperatures

Place Temperature

Nearby Weather Stations